< < Back
Terminal Aerodrome Forecast


Current Version              Previous Versions:   1  2  3  4  5  6  7  8  9  

Terminal Aerodrome Forecast

505
FTUS42 KFFC 271127
TAFFTY
TAF
KFTY 271127Z 2712/2812 VRB03KT P6SM FEW060 SCT120
     FM271500 22005KT P6SM SCT035
     FM271800 24007KT P6SM VCSH SCT050
      TEMPO 2720/2723 5SM -TSRA BKN035CB
     FM280100 30003KT P6SM SCT070 BKN150=

Latest METAR

172
SAUS70 KWBC 280200 RRF
MTRFTY
METAR KFTY 280153Z 02006KT 3SM BR FEW047 BKN110 23/21 A3003 RMK AO2
RAE48 SLP160 P0033 T02330211


USA.gov is the U.S. government's official web portal to all federal, state and local government web resources and services.